Aérodrome :
LOGIN :

S'inscrire | Disclaimer

   EN    FR    IT 

 










Légende :    VFR   VFR Marginal   IFR   IFR Intensif   IFR Très Intensif
Visi : 
Plafond : 
>= 8 km
>= 3000ft
5 à 8 km
1000 à 3000 ft
1500m à 5 km
500 à 1000 ft
800 à 1500m
200 à 500 ft
< 800m
< 200 ft
Symboles :   Orages  Brouillard  Fortes neiges  Fortes précipitations  Vent > 20 kt
SIGMETs :   Divers  Orages  Givrage  Turbulence  Onde Orograph.  Cendres Volcan.






- Altitude de l'aérodrome : 79 ft
- Code IATA : SPU


LDSP - Split

DERNIER METAR :
  • 232030Z 12014KT 9999 FEW040 BKN080 14/11 Q1006 TEMPO 12018G28KT

METARs EXPIRÉS :
  • 232000Z 12014KT 9999 BKN075 14/11 Q1006 TEMPO 12018G28KT
  • 231930Z 12016G26KT 9999 FEW020 OVC075 14/11 Q1006 TEMPO 12015KT
  • 231900Z 12015KT 9999 FEW020 OVC072 14/11 Q1006 TEMPO 12018G28KT
  • 231830Z 11018KT 9999 -RA FEW020 OVC072 14/10 Q1006 TEMPO 12018G28KT
  • 231800Z 12014KT 9999 FEW020 OVC072 14/10 Q1006 TEMPO 12018G28KT
  • 231730Z 12014G25KT 9999 FEW020 OVC075 14/10 Q1006 TEMPO 12015KT
  • 231700Z 12014KT 9999 -RA FEW020 OVC060 14/10 Q1006 NOSIG
  • 231630Z 11014G24KT 9999 -RA FEW020 OVC060 14/10 Q1007 NOSIG
  • 231600Z 12013G23KT 9999 -RA FEW020 OVC060 14/10 Q1007 NOSIG

TAF TAF LDSP
Valide du 23 à 18h jusqu'au 24 à 18h UTC


231725Z 2318/2418 12014KT 9999 SCT030 BKN050 TX15/2322Z TN11/2406Z
TEMPO 2318/2407 RA
PROB40
TEMPO 2318/2400 14018G28KT
PROB40
TEMPO 2400/2404 3000 +RA BKN014
BECMG 2402/2404 34007KT
BECMG 2412/2414 10009KT
PROB30
TEMPO 2413/2416 SHRA FEW025TCU SCT030



MET'MAP, la Météo Aéronautique d'un coup d'oeil ! - Copyright ORBIFLY Décembre 2007 - Disclaimer

ORBIFLY MET'MAP TEAM :

Programmation & Développement : Alexandra Zaïnal
Sur une idée originale de : Baudouin d'Aumeries
Soutien technique & logistique : Manuel Goepfert
Assistance : Marc-Olivier Méhu




SOURCES & CREDITS :

   NOAA